This demonstration page uses our WeatherBlox Daily Observations layout. Learn more.

36.17497, -115.13722

Hourly Observations for February 20, 2016

Temp ( °F °C ) Dew Point ( °F °C ) Humidity (%) Winds ( mph kmh ) Pressure ( in mb ) Visibility ( mi km ) Precip ( " mm )
12:53 am 00:53 Clear 54 12.2 29 -1.7 38 38 NW 5 7 30.1 1019 10 16.0934 0 0
1:53 am 01:53 Clear 52 11.1 28 -2.2 40 40 NNW 3 6 30.1 1019 10 16.0934 0 0
2:53 am 02:53 Clear 49 9.4 28 -2.2 44 44 NNW 5 7 30.1 1019 10 16.0934 0 0
3:53 am 03:53 Clear 53 11.7 28 -2.2 38 38 N 9 15 30.08 1019 10 16.0934 0 0
4:53 am 04:53 Clear 52 11.1 30 -1.1 43 43 N 14 22 30.1 1019 10 16.0934 0 0
5:53 am 05:53 Clear 51 10.6 30 -1.1 44 44 N 17 28 30.13 1020 10 16.0934 0 0
6:53 am 06:53 Sunny 51 10.6 28 -2.2 41 41 WNW 9 15 30.15 1021 10 16.0934 0 0
7:53 am 07:53 Sunny 56 13.3 28 -2.2 34 34 WNW 12 19 30.17 1022 10 16.0934 0 0
8:53 am 08:53 Sunny 60 15.6 27 -2.8 28 28 NNW 12 19 30.18 1022 10 16.0934 0 0
9:53 am 09:53 Sunny 65 18.3 27 -2.8 24 24 N 10 17 30.18 1022 10 16.0934 0 0
10:53 am 10:53 Sunny 68 20 25 -3.9 20 20 VRB 5 7 30.17 1022 10 16.0934 0 0
11:53 am 11:53 Sunny 68 20 27 -2.8 21 21 SE 6 9 30.16 1021 10 16.0934 0 0
12:53 pm 12:53 Sunny 69 20.6 27 -2.8 21 21 Calm 30.12 1020 10 16.0934 0 0
1:53 pm 13:53 Sunny 71 21.7 26 -3.3 19 19 Calm 30.1 1019 10 16.0934 0 0
2:53 pm 14:53 Sunny 71 21.7 27 -2.8 19 19 Calm 30.09 1019 10 16.0934 0 0
3:53 pm 15:53 Sunny 71 21.7 27 -2.8 19 19 Calm 30.07 1018 10 16.0934 0 0
4:53 pm 16:53 Sunny 71 21.7 27 -2.8 19 19 Calm 30.07 1018 10 16.0934 0 0
5:53 pm 17:53 Clear 67 19.4 27 -2.8 22 22 SSE 3 6 30.09 1019 10 16.0934 0 0
6:53 pm 18:53 Clear 65 18.3 28 -2.2 25 25 SSW 3 6 30.1 1019 10 16.0934 0 0
7:53 pm 19:53 Clear 61 16.1 28 -2.2 29 29 NNW 5 7 30.11 1020 10 16.0934 0 0
8:53 pm 20:53 Clear 59 15 27 -2.8 29 29 WNW 5 7 30.11 1020 10 16.0934 0 0
9:53 pm 21:53 Clear 57 13.9 27 -2.8 32 32 NW 6 9 30.11 1020 10 16.0934 0 0
10:53 pm 22:53 Clear 59 15 24 -4.4 26 26 NNW 7 11 30.1 1019 10 16.0934 0 0
11:53 pm 23:53 Clear 55 12.8 26 -3.3 33 33 WNW 6 9 30.1 1019 10 16.0934 0 0

Powered by AerisWeather